createdAt,value
2023-11-09T00:13:44.213Z,11.75
2023-11-09T00:33:44.130Z,11.74
2023-11-09T00:53:44.131Z,11.74
2023-11-09T01:13:44.097Z,11.74
2023-11-09T01:33:43.870Z,11.74
2023-11-09T01:53:44.072Z,11.73
2023-11-09T02:13:44.062Z,11.73
2023-11-09T02:33:44.030Z,11.73
2023-11-09T02:53:44.021Z,11.73
2023-11-09T03:13:43.996Z,11.72
2023-11-09T03:33:44.018Z,11.72
2023-11-09T03:53:43.978Z,11.72
2023-11-09T04:13:43.945Z,11.72
2023-11-09T04:33:43.947Z,11.72
2023-11-09T04:53:43.925Z,11.72
2023-11-09T05:13:43.942Z,11.71
2023-11-09T05:53:43.941Z,11.71
2023-11-09T06:13:43.890Z,11.71
2023-11-09T06:33:43.868Z,11.71
2023-11-09T06:53:43.842Z,11.71
2023-11-09T07:13:43.803Z,11.71
2023-11-09T07:33:43.855Z,11.71
2023-11-09T07:53:43.791Z,11.71
2023-11-09T08:13:43.781Z,11.71
2023-11-09T08:33:43.814Z,11.71
2023-11-09T08:53:43.729Z,11.71
2023-11-09T09:13:43.859Z,11.71
2023-11-09T09:53:43.673Z,11.71
2023-11-09T10:13:43.683Z,11.71
2023-11-09T10:33:43.713Z,11.71
2023-11-09T10:53:43.600Z,11.71
2023-11-09T11:13:43.640Z,11.71
2023-11-09T11:33:43.649Z,11.71
2023-11-09T11:53:43.546Z,11.71
2023-11-09T12:13:43.539Z,11.71
2023-11-09T12:33:43.533Z,11.71
2023-11-09T12:53:43.473Z,11.71
2023-11-09T13:13:43.520Z,11.71
2023-11-09T13:33:43.460Z,11.71
2023-11-09T13:53:43.485Z,11.71
2023-11-09T14:13:43.403Z,11.71
2023-11-09T14:33:43.398Z,11.71
2023-11-09T14:53:43.355Z,11.71
2023-11-09T15:13:43.303Z,11.71
2023-11-09T15:33:43.362Z,11.71
2023-11-09T15:53:43.297Z,11.71
2023-11-09T16:13:43.334Z,11.71
2023-11-09T16:33:43.248Z,11.71
2023-11-09T16:53:43.301Z,11.71
2023-11-09T17:13:43.228Z,11.71
2023-11-09T17:33:43.318Z,11.71
2023-11-09T17:53:43.170Z,11.71
2023-11-09T18:13:43.193Z,11.72
2023-11-09T18:33:43.150Z,11.72
2023-11-09T18:53:43.178Z,11.71
2023-11-09T19:13:43.137Z,11.71
2023-11-09T19:33:43.135Z,11.71
2023-11-09T19:53:43.079Z,11.71
2023-11-09T20:13:43.104Z,11.71
2023-11-09T20:33:43.078Z,11.71
2023-11-09T20:53:43.058Z,11.71
2023-11-09T21:13:43.585Z,11.71
2023-11-09T21:33:43.155Z,11.71
2023-11-09T21:53:43.009Z,11.71
2023-11-09T22:13:42.998Z,11.71
2023-11-09T22:53:42.991Z,11.7
2023-11-09T23:13:42.951Z,11.7
2023-11-09T23:33:42.966Z,11.69
2023-11-09T23:53:42.918Z,11.68
